Time;durP1;ratioP1;P1;durP2;ratioP2;P2;SDS_P1;SDS_P2;PMS_P1;PMS_P2;Temp;Humidity;BMP_temperature;BMP_pressure;BME280_temperature;BME280_humidity;BME280_pressure;Samples;Min_cycle;Max_cycle;Signal;HPM_P1;HPM_P2
2022/06/18 00:00:19;;;;;;;7.18;4.68;;;18.80;1.00;;;;;;4963372;28;20647;-90
2022/06/18 00:02:44;;;;;;;6.93;4.72;;;18.80;1.00;;;;;;4975712;28;20133;-89
2022/06/18 00:05:13;;;;;;;5.18;3.97;;;18.70;1.00;;;;;;4992245;28;20153;-90
2022/06/18 00:07:44;;;;;;;5.78;4.85;;;18.70;1.00;;;;;;4993060;28;20043;-90
2022/06/18 00:10:24;;;;;;;8.35;4.63;;;18.80;5.30;;;;;;4993966;28;20052;-90
2022/06/18 00:15:38;;;;;;;6.60;4.63;;;18.80;1.00;;;;;;4964502;28;20082;-90
2022/06/18 00:18:11;;;;;;;7.43;5.00;;;18.80;1.00;;;;;;4991871;28;20042;-90
2022/06/18 00:20:38;;;;;;;8.02;4.82;;;18.70;1.00;;;;;;4962099;28;20035;-91
2022/06/18 00:23:10;;;;;;;6.45;4.53;;;18.80;1.00;;;;;;4976735;28;20119;-90
2022/06/18 00:25:38;;;;;;;7.53;4.85;;;18.80;24.00;;;;;;4993091;28;20049;-91
2022/06/18 00:28:12;;;;;;;7.18;4.43;;;18.80;1.00;;;;;;4995181;28;20100;-90
2022/06/18 00:30:39;;;;;;;6.22;5.10;;;18.80;1.00;;;;;;4992635;28;20058;-90
2022/06/18 00:33:05;;;;;;;7.70;5.03;;;18.90;1.00;;;;;;4965584;28;20034;-90
2022/06/18 00:35:32;;;;;;;8.38;4.90;;;18.90;1.00;;;;;;4968912;28;20073;-90
2022/06/18 00:38:00;;;;;;;5.93;4.90;;;18.80;5.60;;;;;;4998298;28;20039;-90
2022/06/18 00:40:28;;;;;;;6.88;4.72;;;18.80;1.00;;;;;;4985091;28;20034;-91
2022/06/18 00:42:59;;;;;;;5.18;4.63;;;18.90;1.00;;;;;;4997299;28;20034;-90
2022/06/18 00:45:27;;;;;;;5.45;4.40;;;18.80;1.00;;;;;;4983439;28;20066;-90
2022/06/18 00:48:14;;;;;;;5.95;4.25;;;18.80;1.00;;;;;;4985031;28;20073;-91
2022/06/18 00:50:46;;;;;;;5.07;4.43;;;18.80;1.00;;;;;;4986563;28;20201;-91
2022/06/18 00:53:19;;;;;;;6.95;4.85;;;18.80;1.00;;;;;;4998314;28;20053;-90
2022/06/18 00:56:02;;;;;;;6.40;5.30;;;18.80;3.20;;;;;;4981324;28;20039;-90
2022/06/18 00:58:41;;;;;;;6.70;4.90;;;18.80;31.70;;;;;;4982912;28;20090;-91
2022/06/18 01:01:22;;;;;;;5.43;4.93;;;18.80;2.10;;;;;;4998041;28;20038;-90
2022/06/18 01:03:50;;;;;;;6.85;5.10;;;18.80;17.90;;;;;;4997260;28;20035;-91
2022/06/18 01:06:29;;;;;;;6.68;5.03;;;18.70;43.20;;;;;;4969277;28;20042;-90
2022/06/18 01:09:12;;;;;;;6.18;5.07;;;18.70;49.30;;;;;;4987582;28;20117;-90
2022/06/18 01:11:44;;;;;;;7.35;4.82;;;18.90;34.60;;;;;;4995050;28;20182;-90
2022/06/18 01:14:14;;;;;;;7.63;5.30;;;18.80;25.70;;;;;;4995453;28;20121;-90
2022/06/18 01:16:43;;;;;;;11.10;6.03;;;18.90;61.20;;;;;;4980617;28;20317;-90
2022/06/18 01:19:21;;;;;;;7.57;5.53;;;18.90;38.60;;;;;;4995390;28;20222;-91
2022/06/18 01:22:06;;;;;;;6.45;5.50;;;18.80;56.30;;;;;;4997254;28;20045;-91
2022/06/18 01:24:38;;;;;;;7.28;5.53;;;18.80;54.90;;;;;;4997730;28;20057;-90
2022/06/18 01:27:06;;;;;;;7.55;5.28;;;18.70;63.10;;;;;;4967115;28;20069;-91
2022/06/18 01:29:32;;;;;;;9.57;5.40;;;18.60;69.90;;;;;;4998539;28;20054;-90
2022/06/18 01:32:01;;;;;;;6.22;5.63;;;18.60;57.50;;;;;;4994611;28;20043;-90
2022/06/18 01:34:28;;;;;;;7.30;5.85;;;18.60;56.00;;;;;;4968043;28;20034;-91
2022/06/18 01:36:54;;;;;;;9.82;5.90;;;18.50;62.50;;;;;;4986688;28;20062;-90
2022/06/18 01:39:24;;;;;;;6.72;5.68;;;18.50;79.90;;;;;;4997498;28;20089;-91
2022/06/18 01:42:03;;;;;;;11.48;5.93;;;18.50;87.00;;;;;;4996951;28;20053;-90
2022/06/18 01:44:35;;;;;;;7.35;6.07;;;18.50;99.20;;;;;;4997288;28;20810;-91
2022/06/18 01:47:16;;;;;;;7.00;6.22;;;18.50;93.50;;;;;;4976715;28;20082;-91
2022/06/18 01:49:59;;;;;;;10.48;6.18;;;18.40;99.90;;;;;;4986281;28;20122;-91
2022/06/18 01:52:50;;;;;;;6.82;5.63;;;18.40;99.90;;;;;;4995951;28;20046;-91
2022/06/18 01:55:21;;;;;;;9.95;6.20;;;18.40;96.20;;;;;;4984469;28;20050;-91
2022/06/18 01:57:58;;;;;;;8.05;6.20;;;18.40;99.90;;;;;;4967490;28;20046;-91
2022/06/18 02:00:26;;;;;;;7.53;6.70;;;18.30;97.40;;;;;;4996792;28;20339;-90
2022/06/18 02:02:53;;;;;;;8.60;6.85;;;18.30;99.90;;;;;;4967940;28;20030;-91
2022/06/18 02:05:20;;;;;;;7.47;6.07;;;18.30;99.90;;;;;;4997912;28;20026;-92
2022/06/18 02:07:48;;;;;;;8.73;6.50;;;18.20;99.90;;;;;;4969333;28;20129;-91
2022/06/18 02:10:20;;;;;;;12.80;6.85;;;18.20;99.90;;;;;;4984807;28;20038;-91
2022/06/18 02:12:47;;;;;;;9.13;6.72;;;18.10;99.90;;;;;;4972723;28;20061;-91
2022/06/18 02:15:22;;;;;;;8.45;7.60;;;18.10;99.90;;;;;;4969185;28;20061;-90
2022/06/18 02:17:48;;;;;;;9.43;7.28;;;18.10;99.90;;;;;;4982257;28;20079;-90
2022/06/18 02:20:20;;;;;;;9.90;7.88;;;18.20;99.90;;;;;;4984348;28;20039;-90
2022/06/18 02:22:54;;;;;;;9.90;7.93;;;18.20;99.90;;;;;;4984537;28;20043;-90
2022/06/18 02:25:23;;;;;;;11.35;8.00;;;18.20;99.90;;;;;;4995898;28;20042;-91
2022/06/18 02:27:56;;;;;;;9.77;8.30;;;18.20;99.90;;;;;;4994934;28;20528;-91
2022/06/18 02:30:25;;;;;;;9.50;8.50;;;18.10;99.90;;;;;;4995290;28;20085;-91
2022/06/18 02:32:59;;;;;;;9.88;8.43;;;18.10;99.90;;;;;;4992097;28;20050;-90
2022/06/18 02:35:32;;;;;;;11.63;8.75;;;18.10;99.90;;;;;;4996088;28;20046;-91
2022/06/18 02:37:58;;;;;;;11.65;8.07;;;18.00;99.90;;;;;;4994832;28;20114;-90
2022/06/18 02:40:26;;;;;;;9.77;8.50;;;18.10;99.90;;;;;;4969330;28;20068;-91
2022/06/18 02:42:55;;;;;;;11.45;9.07;;;18.00;99.90;;;;;;4964160;28;20420;-90
2022/06/18 02:45:23;;;;;;;11.30;8.50;;;18.00;99.90;;;;;;4964461;28;20058;-91
2022/06/18 02:47:50;;;;;;;12.15;8.93;;;18.00;99.90;;;;;;4964782;28;20035;-90
2022/06/18 02:50:20;;;;;;;11.07;8.70;;;18.00;99.90;;;;;;4981735;28;20043;-91
2022/06/18 02:52:53;;;;;;;14.25;9.02;;;17.90;99.90;;;;;;4996123;28;20031;-91
2022/06/18 02:55:39;;;;;;;11.32;9.30;;;17.90;99.90;;;;;;4969245;28;20046;-91
2022/06/18 02:58:11;;;;;;;12.43;9.80;;;17.90;99.90;;;;;;4964878;28;20145;-91
2022/06/18 03:00:41;;;;;;;13.55;10.18;;;18.00;99.90;;;;;;4980736;28;20034;-91
2022/06/18 03:03:11;;;;;;;15.57;9.65;;;17.90;99.90;;;;;;4995763;28;20053;-91
2022/06/18 03:05:38;;;;;;;13.20;10.13;;;17.90;99.90;;;;;;4971810;28;20039;-91
2022/06/18 03:08:04;;;;;;;10.77;9.68;;;17.90;99.90;;;;;;4966697;28;20394;-91
2022/06/18 03:13:18;;;;;;;11.50;10.30;;;17.80;99.90;;;;;;4987773;28;20093;-90
2022/06/18 03:15:45;;;;;;;13.85;11.27;;;17.90;99.90;;;;;;4997074;28;20097;-91
2022/06/18 03:18:12;;;;;;;14.18;11.23;;;17.90;99.90;;;;;;4993996;28;20034;-91
2022/06/18 03:20:54;;;;;;;16.65;11.75;;;17.80;99.90;;;;;;4984189;28;20050;-90
2022/06/18 03:23:23;;;;;;;12.43;10.98;;;17.80;99.90;;;;;;4976202;28;20046;-91
2022/06/18 03:25:49;;;;;;;13.35;11.95;;;17.80;99.90;;;;;;4993924;28;20438;-91
2022/06/18 03:28:17;;;;;;;13.25;11.18;;;17.80;99.90;;;;;;4965032;28;20613;-90
2022/06/18 03:30:42;;;;;;;17.27;12.38;;;17.80;99.90;;;;;;4963366;28;20069;-91
2022/06/18 03:33:09;;;;;;;17.77;12.93;;;17.80;99.90;;;;;;4995987;28;20482;-91
2022/06/18 03:35:39;;;;;;;14.77;11.98;;;17.80;99.90;;;;;;4980908;28;20038;-91
2022/06/18 03:38:05;;;;;;;14.35;12.77;;;17.80;99.90;;;;;;4961719;28;20081;-90
2022/06/18 03:40:32;;;;;;;17.42;12.93;;;17.80;99.90;;;;;;4969800;28;20035;-91
2022/06/18 03:42:58;;;;;;;16.55;13.23;;;17.80;99.90;;;;;;4995231;28;20182;-91
2022/06/18 03:45:23;;;;;;;15.93;13.10;;;17.80;99.90;;;;;;4966834;28;20918;-92
2022/06/18 03:47:50;;;;;;;15.98;13.60;;;17.70;99.90;;;;;;4960158;28;20129;-90
2022/06/18 03:50:19;;;;;;;15.73;13.80;;;17.80;99.90;;;;;;4994835;28;20038;-91
2022/06/18 03:52:45;;;;;;;16.65;14.93;;;17.80;99.90;;;;;;4977933;28;20074;-91
2022/06/18 03:55:15;;;;;;;17.48;14.63;;;17.70;99.90;;;;;;4966813;28;20043;-91
2022/06/18 03:57:41;;;;;;;19.60;14.55;;;17.70;99.90;;;;;;4969892;28;20344;-90
2022/06/18 04:00:15;;;;;;;20.17;14.88;;;17.70;99.90;;;;;;4978585;28;20047;-91
2022/06/18 04:02:41;;;;;;;19.77;14.50;;;17.70;99.90;;;;;;4964528;28;20061;-91
2022/06/18 04:05:08;;;;;;;17.75;15.15;;;17.70;99.90;;;;;;4950595;28;20058;-91
2022/06/18 04:07:34;;;;;;;22.25;15.90;;;17.80;99.90;;;;;;4982652;28;20042;-91
2022/06/18 04:10:01;;;;;;;19.67;15.98;;;17.70;99.90;;;;;;4965034;28;20053;-91
2022/06/18 04:12:28;;;;;;;18.90;15.45;;;17.80;99.90;;;;;;4992709;28;20047;-92
2022/06/18 04:14:54;;;;;;;24.40;15.73;;;17.70;99.90;;;;;;5000422;28;20082;-91
2022/06/18 04:17:20;;;;;;;20.08;16.70;;;17.80;99.90;;;;;;4969839;28;20470;-91
2022/06/18 04:19:47;;;;;;;22.88;15.90;;;17.80;99.90;;;;;;5000893;28;20077;-91
2022/06/18 04:22:13;;;;;;;22.13;17.05;;;17.80;99.90;;;;;;4985502;28;20046;-91
2022/06/18 04:24:38;;;;;;;20.45;16.13;;;17.80;99.90;;;;;;5002338;28;20055;-90
2022/06/18 04:27:08;;;;;;;23.52;16.25;;;17.90;99.90;;;;;;4984954;28;20457;-91
2022/06/18 04:29:34;;;;;;;22.98;17.55;;;17.90;99.90;;;;;;4971250;28;20074;-91
2022/06/18 04:32:00;;;;;;;19.80;16.70;;;17.90;99.90;;;;;;5001011;28;20054;-91
2022/06/18 04:34:27;;;;;;;24.58;17.75;;;17.80;99.90;;;;;;4976379;28;20221;-92
2022/06/18 04:36:54;;;;;;;20.48;16.80;;;17.90;99.90;;;;;;4991950;28;20557;-91
2022/06/18 04:39:24;;;;;;;30.00;17.58;;;18.00;99.90;;;;;;4967263;28;20040;-91
2022/06/18 04:41:50;;;;;;;21.52;18.30;;;18.00;99.90;;;;;;5001491;28;20072;-91
2022/06/18 04:44:16;;;;;;;25.73;18.40;;;17.90;99.90;;;;;;5003807;28;20628;-92
2022/06/18 04:46:42;;;;;;;24.10;18.58;;;18.00;99.90;;;;;;4967570;28;20034;-92
2022/06/18 04:49:07;;;;;;;29.45;17.85;;;18.10;99.90;;;;;;4972397;28;20035;-92
2022/06/18 04:51:33;;;;;;;24.83;18.20;;;18.10;99.90;;;;;;4988524;28;20027;-92
2022/06/18 04:53:59;;;;;;;23.20;19.42;;;18.20;99.90;;;;;;4972245;28;20116;-91
2022/06/18 04:56:27;;;;;;;24.85;20.15;;;18.10;99.90;;;;;;4968335;28;20457;-92
2022/06/18 04:58:53;;;;;;;26.73;19.33;;;18.20;99.90;;;;;;4970654;28;20042;-92
2022/06/18 05:01:21;;;;;;;25.20;18.75;;;18.10;99.90;;;;;;4970254;28;20104;-92
2022/06/18 05:03:47;;;;;;;28.70;19.65;;;18.10;99.90;;;;;;5000821;28;20066;-91
2022/06/18 05:06:13;;;;;;;27.98;19.25;;;18.20;99.90;;;;;;4990954;28;20638;-92
2022/06/18 05:08:39;;;;;;;27.23;20.35;;;18.30;99.90;;;;;;4984614;28;20102;-93
2022/06/18 05:11:08;;;;;;;26.60;18.85;;;18.30;99.90;;;;;;5000402;28;20042;-92
2022/06/18 05:13:33;;;;;;;25.52;19.77;;;18.40;99.90;;;;;;4983405;28;20054;-92
2022/06/18 05:15:59;;;;;;;28.17;19.23;;;18.40;99.90;;;;;;4962102;28;20044;-92
2022/06/18 05:18:30;;;;;;;31.58;19.65;;;18.50;99.90;;;;;;4983795;28;20031;-92
2022/06/18 05:20:56;;;;;;;28.15;19.55;;;18.50;99.90;;;;;;4974158;28;20043;-92
2022/06/18 05:23:21;;;;;;;25.83;19.70;;;18.50;99.90;;;;;;4966463;28;20034;-91
2022/06/18 05:25:51;;;;;;;30.55;19.63;;;18.50;99.90;;;;;;4972765;28;20042;-92
2022/06/18 05:28:16;;;;;;;27.98;19.70;;;18.50;99.90;;;;;;4998912;28;20058;-92
2022/06/18 05:30:42;;;;;;;27.15;19.50;;;18.60;99.90;;;;;;4966783;28;20038;-92
2022/06/18 05:33:08;;;;;;;29.10;19.85;;;18.50;99.90;;;;;;4996634;28;20058;-91
2022/06/18 05:35:37;;;;;;;27.05;19.20;;;18.50;99.90;;;;;;4980237;28;20038;-91
2022/06/18 05:38:03;;;;;;;24.38;19.13;;;18.50;99.90;;;;;;4969167;28;20070;-91
2022/06/18 05:40:29;;;;;;;25.27;19.08;;;18.50;99.90;;;;;;4981254;28;20058;-92
2022/06/18 05:42:55;;;;;;;23.83;17.48;;;18.60;99.90;;;;;;4971446;28;20100;-92
2022/06/18 05:45:21;;;;;;;28.33;18.30;;;18.80;99.90;;;;;;4967078;28;20058;-91
2022/06/18 05:47:48;;;;;;;28.92;18.38;;;18.80;99.90;;;;;;4980152;28;20046;-92
2022/06/18 05:50:17;;;;;;;26.33;17.67;;;18.60;99.90;;;;;;4996213;28;20038;-92
2022/06/18 05:52:43;;;;;;;26.83;17.55;;;18.70;99.90;;;;;;4997465;28;20043;-92
2022/06/18 05:55:09;;;;;;;33.95;18.27;;;18.80;99.90;;;;;;4968431;28;20064;-91
2022/06/18 05:57:48;;;;;;;23.20;17.70;;;18.70;99.90;;;;;;4979316;28;20035;-92
2022/06/18 06:00:16;;;;;;;29.23;16.98;;;19.00;99.90;;;;;;4996810;28;20398;-93
2022/06/18 06:02:41;;;;;;;24.38;17.05;;;19.00;99.90;;;;;;4965857;28;20078;-92
2022/06/18 06:05:07;;;;;;;24.17;16.77;;;19.00;99.90;;;;;;4983284;28;20418;-92
2022/06/18 06:07:33;;;;;;;24.35;16.65;;;19.00;99.90;;;;;;4965231;28;20083;-92
2022/06/18 06:12:43;;;;;;;21.13;16.80;;;19.20;99.90;;;;;;4970670;28;20109;-91
2022/06/18 06:15:10;;;;;;;26.92;16.55;;;19.30;99.90;;;;;;4957523;28;20201;-92
2022/06/18 06:17:36;;;;;;;22.63;15.65;;;19.30;99.90;;;;;;4964641;28;20073;-92
2022/06/18 06:20:11;;;;;;;29.65;15.18;;;19.50;99.90;;;;;;4994294;28;20057;-92
2022/06/18 06:22:37;;;;;;;26.13;15.82;;;19.50;99.90;;;;;;4967755;28;20042;-93
2022/06/18 06:25:03;;;;;;;24.58;15.60;;;19.50;99.90;;;;;;4980042;28;20050;-92
2022/06/18 06:27:29;;;;;;;24.48;15.05;;;19.70;99.90;;;;;;4943794;28;20051;-93
2022/06/18 06:29:55;;;;;;;23.23;14.85;;;19.70;99.90;;;;;;4975630;28;20498;-92
2022/06/18 06:32:21;;;;;;;20.98;15.02;;;19.70;99.90;;;;;;4962099;28;20066;-92
2022/06/18 06:34:46;;;;;;;21.77;14.57;;;20.00;99.90;;;;;;4936204;28;20054;-92
2022/06/18 06:37:15;;;;;;;21.52;15.02;;;20.00;99.90;;;;;;4964700;28;20035;-92
2022/06/18 06:39:41;;;;;;;18.50;13.95;;;20.10;99.90;;;;;;4996633;28;20669;-92
2022/06/18 06:42:08;;;;;;;20.90;13.43;;;20.40;99.90;;;;;;4994426;28;20038;-92
2022/06/18 06:44:34;;;;;;;19.05;11.93;;;20.30;99.90;;;;;;4968083;28;20146;-92
2022/06/18 06:47:00;;;;;;;18.85;12.68;;;20.40;99.90;;;;;;4942600;28;20126;-92
2022/06/18 06:49:26;;;;;;;16.38;11.90;;;20.50;99.90;;;;;;4980040;28;20034;-92
2022/06/18 06:51:53;;;;;;;21.85;11.63;;;20.50;99.90;;;;;;4963915;28;20048;-91
2022/06/18 06:54:19;;;;;;;14.00;10.38;;;20.70;99.90;;;;;;4993187;28;20518;-91
2022/06/18 06:59:36;;;;;;;19.30;11.00;;;20.70;98.00;;;;;;4966238;28;20038;-93
2022/06/18 07:02:02;;;;;;;20.17;11.60;;;20.70;99.90;;;;;;4964705;28;20129;-91
2022/06/18 07:04:28;;;;;;;16.40;11.25;;;20.70;95.80;;;;;;4998726;28;20057;-92
2022/06/18 07:06:56;;;;;;;19.50;10.80;;;20.70;99.90;;;;;;4986515;28;20359;-92
2022/06/18 07:09:22;;;;;;;17.02;10.82;;;20.70;99.90;;;;;;4968934;28;20057;-93
2022/06/18 07:11:47;;;;;;;15.52;10.75;;;20.90;99.90;;;;;;4969868;28;20060;-93
2022/06/18 07:14:13;;;;;;;20.17;10.77;;;20.70;99.90;;;;;;4968245;28;20042;-92
2022/06/18 07:16:53;;;;;;;17.85;10.52;;;20.90;99.90;;;;;;4962109;28;20046;-92
2022/06/18 07:19:19;;;;;;;15.23;9.02;;;21.10;99.90;;;;;;4996404;28;20998;-93
2022/06/18 07:21:52;;;;;;;14.18;8.43;;;21.20;99.90;;;;;;4980276;28;20523;-93
2022/06/18 07:24:19;;;;;;;14.48;9.43;;;21.10;99.90;;;;;;4995241;28;20042;-92
2022/06/18 07:26:45;;;;;;;15.00;10.10;;;21.00;98.30;;;;;;4994826;28;20039;-92
2022/06/18 07:29:11;;;;;;;15.65;9.85;;;21.30;99.90;;;;;;4982287;28;20035;-92
2022/06/18 07:31:37;;;;;;;15.68;9.55;;;21.10;99.90;;;;;;4996677;28;20034;-92
2022/06/18 07:34:07;;;;;;;17.65;9.20;;;21.30;67.60;;;;;;4995830;28;20509;-92
2022/06/18 07:36:33;;;;;;;14.40;8.10;;;21.30;72.00;;;;;;4971344;28;20389;-91
2022/06/18 07:39:04;;;;;;;16.80;9.13;;;21.40;88.00;;;;;;4964965;28;20043;-92
2022/06/18 07:41:37;;;;;;;13.75;8.68;;;21.40;95.10;;;;;;4994604;28;20043;-92
2022/06/18 07:44:03;;;;;;;13.93;8.65;;;21.60;98.70;;;;;;4983881;28;20109;-93
2022/06/18 07:46:29;;;;;;;14.05;8.95;;;21.70;99.90;;;;;;4996142;28;20138;-92
2022/06/18 07:48:55;;;;;;;16.92;8.30;;;21.60;99.90;;;;;;4979773;28;20494;-93
2022/06/18 07:51:24;;;;;;;12.05;8.88;;;21.70;99.90;;;;;;4968150;28;20049;-93
2022/06/18 07:53:50;;;;;;;14.05;8.38;;;21.80;99.90;;;;;;4994241;28;20042;-92
2022/06/18 07:56:16;;;;;;;12.65;6.90;;;22.00;99.90;;;;;;4964473;28;20121;-92
2022/06/18 07:58:42;;;;;;;9.80;6.13;;;21.80;99.90;;;;;;4967107;28;20054;-92
2022/06/18 08:01:08;;;;;;;9.45;5.30;;;21.70;78.10;;;;;;4984731;28;20045;-92
2022/06/18 08:03:35;;;;;;;10.43;5.78;;;21.60;97.70;;;;;;4995933;28;20026;-92
2022/06/18 08:06:05;;;;;;;12.02;5.68;;;21.70;99.90;;;;;;4966697;28;20046;-92
2022/06/18 08:08:30;;;;;;;10.32;5.43;;;21.90;92.50;;;;;;4979512;28;20034;-93
2022/06/18 08:10:56;;;;;;;9.60;5.40;;;21.70;75.10;;;;;;4994617;28;20549;-92
2022/06/18 08:13:22;;;;;;;9.73;5.55;;;21.60;88.30;;;;;;4994518;28;20058;-92
2022/06/18 08:15:48;;;;;;;12.68;6.60;;;21.90;99.90;;;;;;4995091;28;20035;-92
2022/06/18 08:18:14;;;;;;;9.05;5.88;;;21.70;99.90;;;;;;4995820;28;20038;-91
2022/06/18 08:20:42;;;;;;;8.55;5.68;;;21.80;99.90;;;;;;4977844;28;20042;-92
2022/06/18 08:23:08;;;;;;;10.63;5.93;;;21.60;99.90;;;;;;4989304;28;20191;-92
2022/06/18 08:25:37;;;;;;;13.13;6.38;;;21.60;99.90;;;;;;4998247;28;20038;-92
2022/06/18 08:28:05;;;;;;;9.88;6.63;;;22.00;99.90;;;;;;4994083;28;20094;-92
2022/06/18 08:30:31;;;;;;;14.30;6.03;;;21.90;99.90;;;;;;4965264;28;20077;-92
2022/06/18 08:33:00;;;;;;;12.35;5.93;;;22.00;99.90;;;;;;4996903;28;20300;-92
2022/06/18 08:35:25;;;;;;;10.90;5.30;;;22.00;99.90;;;;;;4969528;28;20042;-91
2022/06/18 08:37:53;;;;;;;10.20;5.30;;;22.20;98.70;;;;;;4969910;28;20236;-92
2022/06/18 08:40:58;;;;;;;9.95;4.82;;;22.00;62.10;;;;;;4994390;28;20102;-92
2022/06/18 08:43:49;;;;;;;6.72;3.60;;;22.20;32.60;;;;;;4977609;28;20038;-92
2022/06/18 08:46:56;;;;;;;6.97;3.53;;;22.40;99.90;;;;;;4982781;28;20169;-92
2022/06/18 08:50:01;;;;;;;8.32;3.30;;;21.80;99.90;;;;;;4978274;28;20070;-93
2022/06/18 08:52:45;;;;;;;4.03;2.67;;;22.10;43.90;;;;;;4979217;28;20410;-93
2022/06/18 08:55:25;;;;;;;6.80;3.03;;;22.20;64.10;;;;;;4995786;28;20177;-91
2022/06/18 08:58:09;;;;;;;4.97;2.55;;;22.20;79.60;;;;;;4995598;28;20035;-91
2022/06/18 09:00:56;;;;;;;5.07;2.42;;;22.40;64.50;;;;;;4980022;28;20297;-92
2022/06/18 09:03:41;;;;;;;4.90;2.47;;;22.40;62.60;;;;;;4995619;28;20066;-93
2022/06/18 09:06:10;;;;;;;6.78;2.38;;;22.20;63.80;;;;;;4979576;28;20034;-92
2022/06/18 09:09:17;;;;;;;5.15;2.10;;;22.30;99.90;;;;;;4965916;28;20050;-91
2022/06/18 09:12:23;;;;;;;4.45;2.10;;;22.40;86.60;;;;;;4968048;28;20082;-92
2022/06/18 09:15:08;;;;;;;4.75;1.90;;;22.20;45.30;;;;;;4983283;28;20038;-92
2022/06/18 09:17:58;;;;;;;3.17;1.58;;;22.60;99.90;;;;;;4997732;28;20074;-92
2022/06/18 09:20:39;;;;;;;2.92;1.65;;;22.70;99.90;;;;;;4966709;28;20553;-92
2022/06/18 09:23:14;;;;;;;3.45;1.80;;;22.60;70.40;;;;;;4974225;28;20035;-92
2022/06/18 09:25:41;;;;;;;;;;;22.60;64.80;;;;;;4970028;28;20039;-91
2022/06/18 09:28:16;;;;;;;7.60;2.65;;;22.40;99.90;;;;;;4953224;28;19926;-92
2022/06/18 09:30:45;;;;;;;4.05;2.78;;;22.40;99.90;;;;;;4965679;28;20125;-92
2022/06/18 09:33:18;;;;;;;4.60;2.20;;;22.30;99.90;;;;;;4984034;28;20046;-93
2022/06/18 09:35:52;;;;;;;7.75;2.67;;;22.20;99.90;;;;;;4995841;28;20065;-92
2022/06/18 09:38:45;;;;;;;4.20;2.13;;;22.80;99.90;;;;;;4983696;28;20045;-92
2022/06/18 09:41:34;;;;;;;3.85;1.90;;;22.40;83.60;;;;;;4997384;28;20081;-92
2022/06/18 09:44:07;;;;;;;3.15;1.90;;;22.50;99.90;;;;;;4980606;28;20426;-93
2022/06/18 09:46:50;;;;;;;3.65;1.90;;;22.70;93.50;;;;;;4984357;28;20062;-92
2022/06/18 09:49:16;;;;;;;4.47;2.13;;;22.70;78.80;;;;;;4968166;28;20039;-93
2022/06/18 09:51:56;;;;;;;3.28;1.80;;;22.60;32.00;;;;;;4995076;28;20043;-93
2022/06/18 09:54:30;;;;;;;5.13;2.30;;;22.70;40.50;;;;;;4996134;28;20058;-93
2022/06/18 09:56:59;;;;;;;3.17;2.25;;;22.10;99.90;;;;;;4967333;28;20103;-93
2022/06/18 09:59:33;;;;;;;6.40;2.15;;;22.70;69.50;;;;;;4996771;28;20171;-91
2022/06/18 10:02:03;;;;;;;3.35;1.80;;;22.60;94.70;;;;;;4961507;28;20534;-92
2022/06/18 10:07:15;;;;;;;4.30;2.13;;;22.50;40.80;;;;;;4985430;28;20038;-92
2022/06/18 10:09:51;;;;;;;3.22;1.77;;;22.40;99.90;;;;;;4965461;28;20051;-92
2022/06/18 10:12:24;;;;;;;2.60;1.83;;;22.50;1.00;;;;;;4993966;28;20108;-92
2022/06/18 10:14:56;;;;;;;4.35;1.70;;;23.00;7.80;;;;;;4994822;28;20038;-93
2022/06/18 10:17:28;;;;;;;4.82;2.00;;;22.90;1.00;;;;;;4964964;28;20241;-93
2022/06/18 10:20:00;;;;;;;5.03;2.10;;;23.30;20.70;;;;;;4981133;28;20069;-93
2022/06/18 10:22:38;;;;;;;3.83;1.90;;;23.00;1.00;;;;;;4961810;28;20060;-93
2022/06/18 10:25:13;;;;;;;5.20;1.65;;;23.20;1.00;;;;;;4983399;28;20121;-93
2022/06/18 10:27:56;;;;;;;4.47;2.00;;;23.30;3.30;;;;;;4996284;28;20573;-93
2022/06/18 10:30:39;;;;;;;2.50;1.75;;;23.40;1.00;;;;;;4981538;28;20599;-93
2022/06/18 10:33:05;;;;;;;3.88;1.85;;;24.10;1.00;;;;;;4962699;28;20101;-92
2022/06/18 10:36:02;;;;;;;5.47;2.20;;;23.50;1.00;;;;;;4996445;28;20043;-92
2022/06/18 10:38:46;;;;;;;4.85;1.80;;;23.70;1.00;;;;;;4968671;28;20070;-92
2022/06/18 10:41:27;;;;;;;2.65;1.42;;;23.30;1.00;;;;;;4997335;28;20152;-92
2022/06/18 10:44:29;;;;;;;3.50;1.58;;;23.60;99.90;;;;;;4996530;28;20077;-93
2022/06/18 10:47:03;;;;;;;2.72;1.65;;;24.20;1.00;;;;;;4996551;28;20043;-93
2022/06/18 10:49:31;;;;;;;1.98;1.45;;;24.30;1.00;;;;;;4997802;28;20035;-93
2022/06/18 10:51:57;;;;;;;3.60;1.50;;;24.30;1.00;;;;;;4985549;28;20163;-93
2022/06/18 10:54:35;;;;;;;3.15;1.50;;;24.10;1.00;;;;;;4969166;28;20038;-93
2022/06/18 10:57:03;;;;;;;3.75;1.60;;;24.10;1.00;;;;;;4997101;28;20054;-93
2022/06/18 10:59:35;;;;;;;1.95;1.20;;;24.50;1.00;;;;;;4994621;28;20046;-91
2022/06/18 11:02:11;;;;;;;2.70;1.60;;;23.70;1.00;;;;;;4997081;28;20054;-92
2022/06/18 11:04:38;;;;;;;2.60;1.50;;;24.20;1.00;;;;;;4982278;28;20031;-93
2022/06/18 11:07:07;;;;;;;2.55;1.00;;;24.20;1.00;;;;;;4987903;28;20121;-92
2022/06/18 11:09:55;;;;;;;3.83;1.35;;;24.30;1.00;;;;;;4966366;28;20502;-92
2022/06/18 11:12:39;;;;;;;3.30;1.33;;;24.70;1.00;;;;;;4997239;28;20038;-92
2022/06/18 11:15:24;;;;;;;3.10;1.30;;;24.60;1.00;;;;;;4984719;28;20062;-93
2022/06/18 11:17:50;;;;;;;3.90;1.23;;;24.60;1.00;;;;;;4966902;28;20210;-93
2022/06/18 11:20:15;;;;;;;3.42;1.10;;;24.50;1.00;;;;;;4996816;28;20079;-91
2022/06/18 11:22:42;;;;;;;2.38;1.10;;;24.40;1.00;;;;;;4963434;28;20513;-92
2022/06/18 11:25:30;;;;;;;3.60;0.88;;;25.20;1.00;;;;;;4997195;28;20034;-93
2022/06/18 11:27:59;;;;;;;2.15;1.02;;;24.90;1.00;;;;;;4981006;28;20043;-92
2022/06/18 11:30:43;;;;;;;3.13;1.17;;;24.70;1.00;;;;;;4975822;28;20050;-92
2022/06/18 11:33:36;;;;;;;3.13;1.20;;;25.00;1.00;;;;;;4967350;28;20545;-93
2022/06/18 11:36:15;;;;;;;3.10;1.10;;;25.10;1.00;;;;;;4965077;28;20069;-93
2022/06/18 11:38:51;;;;;;;1.90;1.00;;;25.10;1.00;;;;;;4995635;28;20135;-92
2022/06/18 11:41:31;;;;;;;2.53;1.00;;;24.90;1.00;;;;;;4996611;28;20419;-92
2022/06/18 11:44:04;;;;;;;2.83;1.45;;;24.90;1.00;;;;;;4971824;28;20050;-93
2022/06/18 11:46:39;;;;;;;1.08;0.93;;;25.00;1.00;;;;;;4984311;28;20051;-92
2022/06/18 11:49:15;;;;;;;2.85;1.00;;;25.60;1.00;;;;;;4979165;28;20038;-91
2022/06/18 11:51:59;;;;;;;1.40;0.93;;;24.90;1.00;;;;;;4995393;28;20042;-92
2022/06/18 11:54:38;;;;;;;1.53;0.77;;;24.90;1.00;;;;;;4984910;28;20213;-92
2022/06/18 11:57:20;;;;;;;2.42;0.93;;;24.70;1.00;;;;;;4995099;28;20061;-92
2022/06/18 12:00:10;;;;;;;1.98;0.82;;;25.10;1.00;;;;;;4966757;28;20494;-93
2022/06/18 12:02:51;;;;;;;2.38;1.02;;;25.10;1.00;;;;;;4958266;28;20046;-92
2022/06/18 12:05:57;;;;;;;2.17;1.02;;;25.50;1.00;;;;;;4969789;28;20039;-92
2022/06/18 12:08:23;;;;;;;1.73;1.02;;;25.00;1.00;;;;;;4975080;28;20043;-92
2022/06/18 12:11:02;;;;;;;1.98;1.17;;;24.90;1.00;;;;;;4997625;28;20136;-93
2022/06/18 12:13:48;;;;;;;1.77;0.70;;;24.00;1.00;;;;;;4994288;28;20034;-93
2022/06/18 12:16:19;;;;;;;2.78;0.75;;;24.10;1.00;;;;;;4989797;28;20093;-92
2022/06/18 12:18:48;;;;;;;1.67;0.77;;;23.80;1.00;;;;;;4966073;28;20079;-91
2022/06/18 12:21:35;;;;;;;3.08;1.10;;;23.60;1.00;;;;;;4969370;28;20116;-92
2022/06/18 12:24:14;;;;;;;3.00;0.93;;;23.80;1.00;;;;;;4980259;28;20069;-92
2022/06/18 12:27:01;;;;;;;2.22;1.10;;;24.00;1.00;;;;;;4967870;28;20397;-92
2022/06/18 12:29:33;;;;;;;3.05;1.10;;;23.70;1.00;;;;;;4993536;28;20046;-93
2022/06/18 12:32:20;;;;;;;1.38;0.90;;;24.00;1.00;;;;;;4963946;28;20659;-92
2022/06/18 12:34:56;;;;;;;1.80;1.10;;;24.20;1.00;;;;;;4970434;28;20062;-93
2022/06/18 12:37:41;;;;;;;2.67;1.85;;;24.30;1.00;;;;;;4983438;28;20109;-91
2022/06/18 12:40:22;;;;;;;2.72;1.00;;;24.00;1.00;;;;;;4985969;28;20108;-91
2022/06/18 12:43:12;;;;;;;3.90;1.38;;;23.80;1.00;;;;;;4980058;28;20375;-92
2022/06/18 12:45:53;;;;;;;5.13;1.67;;;23.90;1.00;;;;;;4965641;28;20071;-91
2022/06/18 12:48:24;;;;;;;7.82;1.90;;;23.70;1.00;;;;;;4996379;28;20043;-91
2022/06/18 12:51:07;;;;;;;4.78;1.90;;;23.70;1.00;;;;;;4985439;28;20066;-92
2022/06/18 12:53:43;;;;;;;6.68;1.80;;;23.90;1.00;;;;;;4984969;28;20047;-93
2022/06/18 12:56:35;;;;;;;5.32;1.85;;;23.50;1.00;;;;;;4983936;28;20042;-92
2022/06/18 12:59:35;;;;;;;6.95;1.83;;;23.60;1.00;;;;;;4981656;28;20122;-92
2022/06/18 13:02:11;;;;;;;4.55;1.92;;;23.70;1.00;;;;;;4966331;28;20046;-91
2022/06/18 13:04:52;;;;;;;5.82;2.60;;;23.50;1.00;;;;;;4996439;28;20045;-92
2022/06/18 13:07:55;;;;;;;4.97;1.67;;;23.50;1.00;;;;;;4967571;28;20047;-92
2022/06/18 13:11:00;;;;;;;5.75;1.50;;;23.70;1.00;;;;;;4989994;28;20030;-92
2022/06/18 13:13:40;;;;;;;3.97;1.63;;;23.40;1.00;;;;;;4948838;28;20095;-92
2022/06/18 13:16:12;;;;;;;6.85;1.73;;;23.70;1.00;;;;;;4982327;28;20046;-92
2022/06/18 13:18:51;;;;;;;6.65;2.03;;;23.40;1.00;;;;;;4995510;28;20050;-93
2022/06/18 13:21:17;;;;;;;6.85;2.03;;;23.00;1.00;;;;;;4967666;28;20237;-91
2022/06/18 13:29:47;;;;;;;4.85;1.80;;;22.80;1.00;;;;;;4932356;28;20053;-91